sensor_id;sensor_type;location;lat;lon;timestamp;pressure;altitude;pressure_sealevel;temperature;humidity
29379;BME280;16362;47.202;15.258;2023-02-22T00:01:06;96223.84;;;2.03;100.00
29379;BME280;16362;47.202;15.258;2023-02-22T00:03:48;96224.78;;;2.02;100.00
29379;BME280;16362;47.202;15.258;2023-02-22T00:06:17;96228.13;;;2.04;100.00
29379;BME280;16362;47.202;15.258;2023-02-22T00:08:46;96216.75;;;2.04;100.00
29379;BME280;16362;47.202;15.258;2023-02-22T00:11:13;96225.81;;;2.11;100.00
29379;BME280;16362;47.202;15.258;2023-02-22T00:13:40;96226.03;;;2.19;100.00
29379;BME280;16362;47.202;15.258;2023-02-22T00:16:16;96222.38;;;2.10;100.00
29379;BME280;16362;47.202;15.258;2023-02-22T00:18:43;96223.09;;;2.01;100.00
29379;BME280;16362;47.202;15.258;2023-02-22T00:21:12;96221.41;;;2.00;100.00
29379;BME280;16362;47.202;15.258;2023-02-22T00:23:42;96234.09;;;1.95;100.00
29379;BME280;16362;47.202;15.258;2023-02-22T00:26:18;96225.91;;;1.88;100.00
29379;BME280;16362;47.202;15.258;2023-02-22T00:28:46;96232.69;;;1.91;100.00
29379;BME280;16362;47.202;15.258;2023-02-22T00:31:14;96220.84;;;1.96;100.00
29379;BME280;16362;47.202;15.258;2023-02-22T00:33:42;96232.22;;;1.97;100.00
29379;BME280;16362;47.202;15.258;2023-02-22T00:36:10;96226.94;;;1.97;100.00
29379;BME280;16362;47.202;15.258;2023-02-22T00:38:39;96229.47;;;1.87;100.00
29379;BME280;16362;47.202;15.258;2023-02-22T00:41:07;96235.22;;;1.81;100.00
29379;BME280;16362;47.202;15.258;2023-02-22T00:43:34;96239.41;;;1.72;100.00
29379;BME280;16362;47.202;15.258;2023-02-22T00:46:01;96239.16;;;1.75;100.00
29379;BME280;16362;47.202;15.258;2023-02-22T00:48:28;96242.03;;;1.83;100.00
29379;BME280;16362;47.202;15.258;2023-02-22T00:50:55;96242.38;;;1.90;100.00
29379;BME280;16362;47.202;15.258;2023-02-22T00:53:23;96243.22;;;1.91;100.00
29379;BME280;16362;47.202;15.258;2023-02-22T00:55:51;96245.84;;;1.91;100.00
29379;BME280;16362;47.202;15.258;2023-02-22T00:58:18;96253.06;;;1.77;100.00
29379;BME280;16362;47.202;15.258;2023-02-22T01:00:45;96243.72;;;1.62;100.00
29379;BME280;16362;47.202;15.258;2023-02-22T01:03:15;96239.88;;;1.55;100.00
29379;BME280;16362;47.202;15.258;2023-02-22T01:05:43;96242.53;;;1.55;100.00
29379;BME280;16362;47.202;15.258;2023-02-22T01:08:12;96236.31;;;1.56;100.00
29379;BME280;16362;47.202;15.258;2023-02-22T01:10:39;96241.44;;;1.57;100.00
29379;BME280;16362;47.202;15.258;2023-02-22T01:13:07;96240.59;;;1.45;100.00
29379;BME280;16362;47.202;15.258;2023-02-22T01:15:36;96245.13;;;1.43;100.00
29379;BME280;16362;47.202;15.258;2023-02-22T01:18:04;96239.88;;;1.43;100.00
29379;BME280;16362;47.202;15.258;2023-02-22T01:20:31;96243.56;;;1.41;100.00
29379;BME280;16362;47.202;15.258;2023-02-22T01:23:06;96234.25;;;1.37;100.00
29379;BME280;16362;47.202;15.258;2023-02-22T01:25:34;96236.03;;;1.36;100.00
29379;BME280;16362;47.202;15.258;2023-02-22T01:28:03;96240.34;;;1.37;100.00
29379;BME280;16362;47.202;15.258;2023-02-22T01:34:21;96243.09;;;1.36;100.00
29379;BME280;16362;47.202;15.258;2023-02-22T01:36:49;96241.56;;;1.33;100.00
29379;BME280;16362;47.202;15.258;2023-02-22T01:39:16;96239.88;;;1.32;100.00
29379;BME280;16362;47.202;15.258;2023-02-22T01:41:44;96246.06;;;1.31;100.00
29379;BME280;16362;47.202;15.258;2023-02-22T01:44:20;96242.00;;;1.27;100.00
29379;BME280;16362;47.202;15.258;2023-02-22T01:46:48;96244.63;;;1.27;100.00
29379;BME280;16362;47.202;15.258;2023-02-22T01:49:14;96239.38;;;1.27;100.00
29379;BME280;16362;47.202;15.258;2023-02-22T01:51:48;96230.91;;;1.23;100.00
29379;BME280;16362;47.202;15.258;2023-02-22T01:54:17;96234.38;;;1.24;100.00
29379;BME280;16362;47.202;15.258;2023-02-22T01:57:11;96223.59;;;1.27;100.00
29379;BME280;16362;47.202;15.258;2023-02-22T01:59:42;96232.69;;;1.23;100.00
29379;BME280;16362;47.202;15.258;2023-02-22T02:02:11;96229.34;;;1.21;100.00
29379;BME280;16362;47.202;15.258;2023-02-22T02:04:40;96227.44;;;1.23;100.00
29379;BME280;16362;47.202;15.258;2023-02-22T02:07:12;96229.09;;;1.24;100.00
29379;BME280;16362;47.202;15.258;2023-02-22T02:12:10;96225.75;;;1.22;100.00
29379;BME280;16362;47.202;15.258;2023-02-22T02:14:40;96218.91;;;1.19;100.00
29379;BME280;16362;47.202;15.258;2023-02-22T02:17:08;96228.63;;;1.18;100.00
29379;BME280;16362;47.202;15.258;2023-02-22T02:33:41;96233.00;;;1.07;100.00
29379;BME280;16362;47.202;15.258;2023-02-22T02:36:22;96236.63;;;1.06;100.00
29379;BME280;16362;47.202;15.258;2023-02-22T02:39:26;96231.34;;;1.06;100.00
29379;BME280;16362;47.202;15.258;2023-02-22T02:41:55;96231.00;;;1.10;100.00
29379;BME280;16362;47.202;15.258;2023-02-22T02:44:32;96228.72;;;1.06;100.00
29379;BME280;16362;47.202;15.258;2023-02-22T02:50:44;96229.91;;;1.02;100.00
29379;BME280;16362;47.202;15.258;2023-02-22T02:53:16;96222.75;;;1.04;100.00
29379;BME280;16362;47.202;15.258;2023-02-22T02:55:44;96221.91;;;1.03;100.00
29379;BME280;16362;47.202;15.258;2023-02-22T02:58:17;96227.63;;;1.08;100.00
29379;BME280;16362;47.202;15.258;2023-02-22T03:00:45;96215.97;;;1.12;100.00
29379;BME280;16362;47.202;15.258;2023-02-22T03:11:57;96223.09;;;1.10;100.00
29379;BME280;16362;47.202;15.258;2023-02-22T03:14:52;96218.22;;;1.06;100.00
29379;BME280;16362;47.202;15.258;2023-02-22T03:20:51;96228.13;;;1.02;100.00
29379;BME280;16362;47.202;15.258;2023-02-22T03:25:51;96224.41;;;1.05;100.00
29379;BME280;16362;47.202;15.258;2023-02-22T03:28:21;96233.13;;;1.05;100.00
29379;BME280;16362;47.202;15.258;2023-02-22T03:30:57;96226.09;;;1.06;100.00
29379;BME280;16362;47.202;15.258;2023-02-22T03:33:38;96229.69;;;1.05;100.00
29379;BME280;16362;47.202;15.258;2023-02-22T03:36:13;96226.44;;;1.01;100.00
29379;BME280;16362;47.202;15.258;2023-02-22T03:38:41;96229.75;;;0.92;100.00
29379;BME280;16362;47.202;15.258;2023-02-22T03:41:10;96231.78;;;0.88;100.00
29379;BME280;16362;47.202;15.258;2023-02-22T03:43:43;96233.81;;;0.84;100.00
29379;BME280;16362;47.202;15.258;2023-02-22T03:46:12;96229.72;;;0.80;100.00
29379;BME280;16362;47.202;15.258;2023-02-22T03:49:01;96232.69;;;0.76;100.00
29379;BME280;16362;47.202;15.258;2023-02-22T03:51:30;96234.25;;;0.78;100.00
29379;BME280;16362;47.202;15.258;2023-02-22T03:53:58;96238.06;;;0.74;100.00
29379;BME280;16362;47.202;15.258;2023-02-22T03:56:29;96240.81;;;0.73;100.00
29379;BME280;16362;47.202;15.258;2023-02-22T03:59:06;96240.69;;;0.74;100.00
29379;BME280;16362;47.202;15.258;2023-02-22T04:01:35;96241.88;;;0.70;100.00
29379;BME280;16362;47.202;15.258;2023-02-22T04:04:02;96236.84;;;0.67;100.00
29379;BME280;16362;47.202;15.258;2023-02-22T04:06:29;96244.00;;;0.65;100.00
29379;BME280;16362;47.202;15.258;2023-02-22T04:09:07;96249.03;;;0.68;100.00
29379;BME280;16362;47.202;15.258;2023-02-22T04:11:34;96249.34;;;0.63;100.00
29379;BME280;16362;47.202;15.258;2023-02-22T04:14:01;96250.53;;;0.59;100.00
29379;BME280;16362;47.202;15.258;2023-02-22T04:16:27;96244.47;;;0.59;100.00
29379;BME280;16362;47.202;15.258;2023-02-22T04:18:54;96244.69;;;0.56;100.00
29379;BME280;16362;47.202;15.258;2023-02-22T04:21:21;96244.69;;;0.56;100.00
29379;BME280;16362;47.202;15.258;2023-02-22T04:23:48;96235.63;;;0.60;100.00
29379;BME280;16362;47.202;15.258;2023-02-22T04:26:15;96241.22;;;0.55;100.00
29379;BME280;16362;47.202;15.258;2023-02-22T04:28:42;96241.09;;;0.57;100.00
29379;BME280;16362;47.202;15.258;2023-02-22T04:31:09;96240.78;;;0.61;100.00
29379;BME280;16362;47.202;15.258;2023-02-22T04:33:48;96238.03;;;0.63;100.00
29379;BME280;16362;47.202;15.258;2023-02-22T04:36:15;96237.78;;;0.66;100.00
29379;BME280;16362;47.202;15.258;2023-02-22T04:38:42;96238.03;;;0.63;100.00
29379;BME280;16362;47.202;15.258;2023-02-22T04:41:21;96233.44;;;0.54;100.00
29379;BME280;16362;47.202;15.258;2023-02-22T04:43:51;96236.53;;;0.47;100.00
29379;BME280;16362;47.202;15.258;2023-02-22T04:46:18;96227.94;;;0.45;100.00
29379;BME280;16362;47.202;15.258;2023-02-22T04:48:58;96238.88;;;0.39;100.00
29379;BME280;16362;47.202;15.258;2023-02-22T04:51:25;96232.91;;;0.37;100.00
29379;BME280;16362;47.202;15.258;2023-02-22T04:53:51;96240.78;;;0.37;100.00
29379;BME280;16362;47.202;15.258;2023-02-22T04:56:19;96228.84;;;0.33;100.00
29379;BME280;16362;47.202;15.258;2023-02-22T04:58:46;96231.47;;;0.33;100.00
29379;BME280;16362;47.202;15.258;2023-02-22T05:01:14;96234.31;;;0.30;100.00
29379;BME280;16362;47.202;15.258;2023-02-22T05:03:42;96236.19;;;0.28;100.00
29379;BME280;16362;47.202;15.258;2023-02-22T05:06:09;96230.00;;;0.29;100.00
29379;BME280;16362;47.202;15.258;2023-02-22T05:08:37;96226.44;;;0.30;100.00
29379;BME280;16362;47.202;15.258;2023-02-22T05:11:04;96230.13;;;0.27;100.00
29379;BME280;16362;47.202;15.258;2023-02-22T05:13:31;96225.78;;;0.15;100.00
29379;BME280;16362;47.202;15.258;2023-02-22T05:15:57;96225.97;;;0.12;100.00
29379;BME280;16362;47.202;15.258;2023-02-22T05:18:32;96226.09;;;0.10;100.00
29379;BME280;16362;47.202;15.258;2023-02-22T05:20:59;96223.47;;;0.10;100.00
29379;BME280;16362;47.202;15.258;2023-02-22T05:23:25;96221.56;;;0.12;100.00
29379;BME280;16362;47.202;15.258;2023-02-22T05:25:52;96222.28;;;0.14;100.00
29379;BME280;16362;47.202;15.258;2023-02-22T05:28:19;96228.16;;;0.18;100.00
29379;BME280;16362;47.202;15.258;2023-02-22T05:30:46;96219.22;;;0.21;100.00
29379;BME280;16362;47.202;15.258;2023-02-22T05:33:12;96221.84;;;0.21;100.00
29379;BME280;16362;47.202;15.258;2023-02-22T05:35:39;96221.34;;;0.15;100.00
29379;BME280;16362;47.202;15.258;2023-02-22T05:38:18;96224.41;;;0.09;100.00
29379;BME280;16362;47.202;15.258;2023-02-22T05:43:23;96228.19;;;0.05;100.00
29379;BME280;16362;47.202;15.258;2023-02-22T05:45:50;96235.63;;;0.11;100.00
29379;BME280;16362;47.202;15.258;2023-02-22T05:48:16;96227.47;;;0.03;100.00
29379;BME280;16362;47.202;15.258;2023-02-22T05:50:55;96229.94;;;-0.07;100.00
29379;BME280;16362;47.202;15.258;2023-02-22T05:55:00;96225.00;;;-0.11;100.00
29379;BME280;16362;47.202;15.258;2023-02-22T05:57:26;96232.03;;;-0.12;100.00
29379;BME280;16362;47.202;15.258;2023-02-22T05:59:53;96228.97;;;-0.06;100.00
29379;BME280;16362;47.202;15.258;2023-02-22T06:02:20;96230.41;;;-0.02;100.00
29379;BME280;16362;47.202;15.258;2023-02-22T06:04:47;96233.31;;;0.07;100.00
29379;BME280;16362;47.202;15.258;2023-02-22T06:07:13;96236.47;;;0.12;100.00
29379;BME280;16362;47.202;15.258;2023-02-22T06:09:40;96241.84;;;0.10;100.00
29379;BME280;16362;47.202;15.258;2023-02-22T06:12:08;96244.91;;;0.04;100.00
29379;BME280;16362;47.202;15.258;2023-02-22T06:14:35;96245.00;;;0.03;100.00
29379;BME280;16362;47.202;15.258;2023-02-22T06:17:02;96250.16;;;0.04;100.00
29379;BME280;16362;47.202;15.258;2023-02-22T06:19:30;96233.97;;;0.10;100.00
29379;BME280;16362;47.202;15.258;2023-02-22T06:21:57;96241.28;;;0.18;100.00
29379;BME280;16362;47.202;15.258;2023-02-22T06:24:28;96246.53;;;0.18;100.00
29379;BME280;16362;47.202;15.258;2023-02-22T06:26:56;96241.41;;;0.16;100.00
29379;BME280;16362;47.202;15.258;2023-02-22T06:29:24;96245.69;;;0.17;100.00
29379;BME280;16362;47.202;15.258;2023-02-22T06:31:51;96246.53;;;0.18;100.00
29379;BME280;16362;47.202;15.258;2023-02-22T06:34:19;96249.88;;;0.20;100.00
29379;BME280;16362;47.202;15.258;2023-02-22T06:36:47;96250.50;;;0.24;100.00
29379;BME280;16362;47.202;15.258;2023-02-22T06:39:16;96256.84;;;0.32;100.00
29379;BME280;16362;47.202;15.258;2023-02-22T06:41:45;96251.91;;;0.41;100.00
29379;BME280;16362;47.202;15.258;2023-02-22T06:44:14;96248.94;;;0.45;100.00
29379;BME280;16362;47.202;15.258;2023-02-22T06:46:46;96255.19;;;0.56;100.00
29379;BME280;16362;47.202;15.258;2023-02-22T06:49:13;96255.63;;;0.74;100.00
29379;BME280;16362;47.202;15.258;2023-02-22T06:51:39;96254.16;;;1.05;100.00
29379;BME280;16362;47.202;15.258;2023-02-22T06:54:06;96253.63;;;1.36;100.00
29379;BME280;16362;47.202;15.258;2023-02-22T06:56:33;96253.03;;;1.66;100.00
29379;BME280;16362;47.202;15.258;2023-02-22T06:59:00;96253.25;;;1.97;100.00
29379;BME280;16362;47.202;15.258;2023-02-22T07:01:28;96253.59;;;2.26;100.00
29379;BME280;16362;47.202;15.258;2023-02-22T07:03:55;96250.50;;;2.53;100.00
29379;BME280;16362;47.202;15.258;2023-02-22T07:06:22;96251.38;;;2.75;100.00
29379;BME280;16362;47.202;15.258;2023-02-22T07:08:48;96253.63;;;2.80;100.00
29379;BME280;16362;47.202;15.258;2023-02-22T07:11:15;96256.66;;;2.96;100.00
29379;BME280;16362;47.202;15.258;2023-02-22T07:13:43;96251.28;;;3.19;100.00
29379;BME280;16362;47.202;15.258;2023-02-22T07:16:10;96253.78;;;3.42;100.00
29379;BME280;16362;47.202;15.258;2023-02-22T07:18:36;96249.31;;;3.63;100.00
29379;BME280;16362;47.202;15.258;2023-02-22T07:21:04;96249.69;;;3.90;100.00
29379;BME280;16362;47.202;15.258;2023-02-22T07:23:31;96243.06;;;4.05;100.00
29379;BME280;16362;47.202;15.258;2023-02-22T07:25:59;96256.00;;;4.08;100.00
29379;BME280;16362;47.202;15.258;2023-02-22T07:28:26;96246.69;;;4.04;100.00
29379;BME280;16362;47.202;15.258;2023-02-22T07:30:53;96245.72;;;4.05;100.00
29379;BME280;16362;47.202;15.258;2023-02-22T07:33:20;96233.50;;;4.14;100.00
29379;BME280;16362;47.202;15.258;2023-02-22T07:35:48;96241.72;;;4.20;100.00
29379;BME280;16362;47.202;15.258;2023-02-22T07:38:18;96245.22;;;4.31;100.00
29379;BME280;16362;47.202;15.258;2023-02-22T07:40:45;96244.97;;;4.44;100.00
29379;BME280;16362;47.202;15.258;2023-02-22T07:45:45;96245.84;;;4.83;100.00
29379;BME280;16362;47.202;15.258;2023-02-22T07:48:13;96238.59;;;4.95;100.00
29379;BME280;16362;47.202;15.258;2023-02-22T07:50:42;96236.22;;;5.12;100.00
29379;BME280;16362;47.202;15.258;2023-02-22T07:53:15;96235.34;;;5.31;100.00
29379;BME280;16362;47.202;15.258;2023-02-22T07:55:44;96236.72;;;5.35;100.00
29379;BME280;16362;47.202;15.258;2023-02-22T07:58:13;96242.56;;;5.48;100.00
29379;BME280;16362;47.202;15.258;2023-02-22T08:00:43;96238.88;;;5.69;100.00
29379;BME280;16362;47.202;15.258;2023-02-22T08:03:12;96238.41;;;5.83;100.00
29379;BME280;16362;47.202;15.258;2023-02-22T08:05:44;96235.69;;;6.03;100.00
29379;BME280;16362;47.202;15.258;2023-02-22T08:08:11;96234.59;;;6.23;100.00
29379;BME280;16362;47.202;15.258;2023-02-22T08:10:40;96232.81;;;6.42;100.00
29379;BME280;16362;47.202;15.258;2023-02-22T08:13:07;96228.66;;;6.57;100.00
29379;BME280;16362;47.202;15.258;2023-02-22T08:15:37;96225.34;;;6.73;98.81
29379;BME280;16362;47.202;15.258;2023-02-22T08:18:10;96233.00;;;6.95;96.65
29379;BME280;16362;47.202;15.258;2023-02-22T08:20:39;96231.47;;;7.10;96.82
29379;BME280;16362;47.202;15.258;2023-02-22T08:23:06;96225.28;;;7.28;97.58
29379;BME280;16362;47.202;15.258;2023-02-22T08:25:34;96213.03;;;7.53;96.23
29379;BME280;16362;47.202;15.258;2023-02-22T08:28:03;96218.44;;;7.69;95.60
29379;BME280;16362;47.202;15.258;2023-02-22T08:30:31;96214.66;;;7.80;94.71
29379;BME280;16362;47.202;15.258;2023-02-22T08:33:01;96216.53;;;7.88;93.48
29379;BME280;16362;47.202;15.258;2023-02-22T08:35:29;96209.94;;;8.00;93.06
29379;BME280;16362;47.202;15.258;2023-02-22T08:38:02;96202.19;;;8.15;91.95
29379;BME280;16362;47.202;15.258;2023-02-22T08:40:32;96205.69;;;8.24;93.45
29379;BME280;16362;47.202;15.258;2023-02-22T08:42:59;96204.44;;;8.36;91.73
29379;BME280;16362;47.202;15.258;2023-02-22T08:45:27;96209.31;;;8.49;91.31
29379;BME280;16362;47.202;15.258;2023-02-22T08:47:54;96201.34;;;8.66;90.77
29379;BME280;16362;47.202;15.258;2023-02-22T08:50:26;96198.69;;;8.74;89.15
29379;BME280;16362;47.202;15.258;2023-02-22T08:52:55;96201.41;;;8.90;88.71
29379;BME280;16362;47.202;15.258;2023-02-22T08:55:26;96201.06;;;9.02;89.85
29379;BME280;16362;47.202;15.258;2023-02-22T08:57:53;96192.72;;;9.05;89.01
29379;BME280;16362;47.202;15.258;2023-02-22T09:00:20;96199.19;;;9.10;86.74
29379;BME280;16362;47.202;15.258;2023-02-22T09:02:51;96201.38;;;9.15;89.89
29379;BME280;16362;47.202;15.258;2023-02-22T09:05:19;96192.72;;;9.30;87.88
29379;BME280;16362;47.202;15.258;2023-02-22T09:07:46;96196.69;;;9.42;89.37
29379;BME280;16362;47.202;15.258;2023-02-22T09:10:16;96190.00;;;9.63;89.72
29379;BME280;16362;47.202;15.258;2023-02-22T09:12:43;96193.47;;;9.63;87.66
29379;BME280;16362;47.202;15.258;2023-02-22T09:15:10;96181.31;;;9.77;87.42
29379;BME280;16362;47.202;15.258;2023-02-22T09:17:38;96188.59;;;9.83;84.42
29379;BME280;16362;47.202;15.258;2023-02-22T09:20:06;96187.31;;;10.10;84.77
29379;BME280;16362;47.202;15.258;2023-02-22T09:22:32;96175.97;;;10.17;82.40
29379;BME280;16362;47.202;15.258;2023-02-22T09:24:59;96180.50;;;10.16;83.28
29379;BME280;16362;47.202;15.258;2023-02-22T09:27:41;96178.06;;;10.29;83.03
29379;BME280;16362;47.202;15.258;2023-02-22T09:33:00;96177.63;;;10.57;83.59
29379;BME280;16362;47.202;15.258;2023-02-22T09:35:27;96172.41;;;10.87;80.44
29379;BME280;16362;47.202;15.258;2023-02-22T09:37:55;96172.56;;;11.09;79.75
29379;BME280;16362;47.202;15.258;2023-02-22T09:40:23;96169.59;;;11.04;79.22
29379;BME280;16362;47.202;15.258;2023-02-22T09:43:17;96174.16;;;11.18;79.01
29379;BME280;16362;47.202;15.258;2023-02-22T09:51:36;96167.94;;;11.41;78.82
29379;BME280;16362;47.202;15.258;2023-02-22T09:54:10;96163.16;;;11.51;78.34
29379;BME280;16362;47.202;15.258;2023-02-22T09:56:40;96162.44;;;11.72;79.98
29379;BME280;16362;47.202;15.258;2023-02-22T09:59:12;96159.47;;;11.82;77.04
29379;BME280;16362;47.202;15.258;2023-02-22T10:01:44;96154.88;;;11.76;77.80
29379;BME280;16362;47.202;15.258;2023-02-22T10:07:33;96150.47;;;11.98;76.32
29379;BME280;16362;47.202;15.258;2023-02-22T10:10:02;96152.13;;;11.84;77.39
29379;BME280;16362;47.202;15.258;2023-02-22T10:12:40;96140.66;;;11.90;79.15
29379;BME280;16362;47.202;15.258;2023-02-22T10:15:44;96141.25;;;12.01;76.78
29379;BME280;16362;47.202;15.258;2023-02-22T10:18:53;96133.69;;;12.04;76.25
29379;BME280;16362;47.202;15.258;2023-02-22T10:27:27;96120.84;;;12.15;77.05
29379;BME280;16362;47.202;15.258;2023-02-22T10:30:13;96120.41;;;12.11;75.83
29379;BME280;16362;47.202;15.258;2023-02-22T10:35:41;96117.69;;;12.26;76.55
29379;BME280;16362;47.202;15.258;2023-02-22T10:38:25;96114.94;;;12.19;75.21
29379;BME280;16362;47.202;15.258;2023-02-22T10:41:02;96113.38;;;12.10;76.85
29379;BME280;16362;47.202;15.258;2023-02-22T10:43:29;96108.22;;;12.45;73.67
29379;BME280;16362;47.202;15.258;2023-02-22T10:45:59;96107.09;;;12.39;74.12
29379;BME280;16362;47.202;15.258;2023-02-22T10:48:30;96095.03;;;12.43;74.12
29379;BME280;16362;47.202;15.258;2023-02-22T10:50:59;96098.75;;;12.27;76.19
29379;BME280;16362;47.202;15.258;2023-02-22T10:53:28;96100.94;;;12.39;75.92
29379;BME280;16362;47.202;15.258;2023-02-22T10:56:08;96093.44;;;12.49;74.58
29379;BME280;16362;47.202;15.258;2023-02-22T10:58:41;96076.91;;;12.45;74.84
29379;BME280;16362;47.202;15.258;2023-02-22T11:01:44;96091.50;;;12.64;73.48
29379;BME280;16362;47.202;15.258;2023-02-22T11:04:13;96079.78;;;12.66;73.27
29379;BME280;16362;47.202;15.258;2023-02-22T11:06:44;96072.63;;;12.73;72.55
29379;BME280;16362;47.202;15.258;2023-02-22T11:09:15;96068.50;;;12.70;73.28
29379;BME280;16362;47.202;15.258;2023-02-22T11:11:45;96061.94;;;13.01;73.26
29379;BME280;16362;47.202;15.258;2023-02-22T11:14:25;96061.28;;;12.92;71.53
29379;BME280;16362;47.202;15.258;2023-02-22T11:16:54;96054.44;;;13.18;68.24
29379;BME280;16362;47.202;15.258;2023-02-22T11:19:27;96047.59;;;13.37;65.71
29379;BME280;16362;47.202;15.258;2023-02-22T11:21:57;96051.53;;;13.41;64.23
29379;BME280;16362;47.202;15.258;2023-02-22T11:24:25;96042.91;;;13.53;63.68
29379;BME280;16362;47.202;15.258;2023-02-22T11:27:03;96041.13;;;13.60;63.80
29379;BME280;16362;47.202;15.258;2023-02-22T11:29:34;96021.72;;;13.29;64.31
29379;BME280;16362;47.202;15.258;2023-02-22T11:32:14;96029.13;;;13.21;65.71
29379;BME280;16362;47.202;15.258;2023-02-22T11:34:47;96023.66;;;13.36;63.23
29379;BME280;16362;47.202;15.258;2023-02-22T11:37:34;96018.19;;;13.22;64.00
29379;BME280;16362;47.202;15.258;2023-02-22T11:40:17;96020.25;;;12.92;64.77
29379;BME280;16362;47.202;15.258;2023-02-22T11:43:07;96003.81;;;12.95;65.10
29379;BME280;16362;47.202;15.258;2023-02-22T11:45:37;96001.75;;;12.69;66.61
29379;BME280;16362;47.202;15.258;2023-02-22T11:48:18;95989.72;;;12.86;65.84
29379;BME280;16362;47.202;15.258;2023-02-22T11:51:09;95991.72;;;13.06;66.04
29379;BME280;16362;47.202;15.258;2023-02-22T11:54:02;95988.16;;;12.98;65.01
29379;BME280;16362;47.202;15.258;2023-02-22T11:56:43;95983.16;;;12.89;64.38
29379;BME280;16362;47.202;15.258;2023-02-22T12:04:54;95974.78;;;12.42;66.85
29379;BME280;16362;47.202;15.258;2023-02-22T12:07:40;95979.19;;;12.28;67.63
29379;BME280;16362;47.202;15.258;2023-02-22T12:13:35;95968.75;;;12.61;68.08
29379;BME280;16362;47.202;15.258;2023-02-22T12:19:03;95970.75;;;12.31;68.60
29379;BME280;16362;47.202;15.258;2023-02-22T12:21:35;95960.09;;;12.59;66.15
29379;BME280;16362;47.202;15.258;2023-02-22T12:24:15;95960.88;;;12.53;67.30
29379;BME280;16362;47.202;15.258;2023-02-22T12:26:55;95960.09;;;12.59;66.49
29379;BME280;16362;47.202;15.258;2023-02-22T12:30:05;95956.38;;;12.32;67.15
29379;BME280;16362;47.202;15.258;2023-02-22T12:32:47;95949.47;;;12.44;68.26
29379;BME280;16362;47.202;15.258;2023-02-22T12:35:33;95951.94;;;12.46;66.20
29379;BME280;16362;47.202;15.258;2023-02-22T12:38:29;95951.34;;;12.44;66.39
29379;BME280;16362;47.202;15.258;2023-02-22T12:41:10;95942.75;;;12.27;68.26
29379;BME280;16362;47.202;15.258;2023-02-22T12:43:47;95935.41;;;12.36;66.28
29379;BME280;16362;47.202;15.258;2023-02-22T12:47:00;95928.22;;;12.36;65.95
29379;BME280;16362;47.202;15.258;2023-02-22T12:49:27;95930.06;;;12.36;65.44
29379;BME280;16362;47.202;15.258;2023-02-22T12:57:48;95914.59;;;12.09;66.71
29379;BME280;16362;47.202;15.258;2023-02-22T13:03:18;95912.78;;;12.10;66.84
29379;BME280;16362;47.202;15.258;2023-02-22T13:05:55;95908.31;;;12.17;66.22
29379;BME280;16362;47.202;15.258;2023-02-22T13:08:32;95909.34;;;11.94;66.96
29379;BME280;16362;47.202;15.258;2023-02-22T13:24:15;95889.91;;;11.86;68.00
29379;BME280;16362;47.202;15.258;2023-02-22T13:26:50;95896.25;;;11.85;67.86
29379;BME280;16362;47.202;15.258;2023-02-22T13:29:27;95897.66;;;11.80;68.38
29379;BME280;16362;47.202;15.258;2023-02-22T13:35:04;95891.03;;;11.76;69.21
29379;BME280;16362;47.202;15.258;2023-02-22T13:40:24;95885.63;;;11.70;69.00
29379;BME280;16362;47.202;15.258;2023-02-22T13:46:35;95881.03;;;11.63;69.81
29379;BME280;16362;47.202;15.258;2023-02-22T13:51:51;95889.25;;;11.62;69.84
29379;BME280;16362;47.202;15.258;2023-02-22T13:56:53;95879.75;;;11.59;70.34
29379;BME280;16362;47.202;15.258;2023-02-22T13:59:29;95874.06;;;11.62;69.84
29379;BME280;16362;47.202;15.258;2023-02-22T14:01:57;95876.88;;;11.54;69.73
29379;BME280;16362;47.202;15.258;2023-02-22T14:06:57;95871.63;;;11.46;71.02
29379;BME280;16362;47.202;15.258;2023-02-22T14:09:45;95866.66;;;11.43;71.47
29379;BME280;16362;47.202;15.258;2023-02-22T14:18:02;95854.94;;;11.22;74.18
29379;BME280;16362;47.202;15.258;2023-02-22T14:20:34;95868.78;;;11.11;75.93
29379;BME280;16362;47.202;15.258;2023-02-22T14:26:12;95865.75;;;10.99;76.85
29379;BME280;16362;47.202;15.258;2023-02-22T14:34:11;95869.19;;;10.78;78.78
29379;BME280;16362;47.202;15.258;2023-02-22T14:37:04;95865.13;;;10.67;79.70
29379;BME280;16362;47.202;15.258;2023-02-22T14:39:43;95870.47;;;10.52;80.88
29379;BME280;16362;47.202;15.258;2023-02-22T14:47:41;95869.28;;;10.40;82.62
29379;BME280;16362;47.202;15.258;2023-02-22T14:50:17;95862.94;;;10.41;82.26
29379;BME280;16362;47.202;15.258;2023-02-22T14:55:43;95866.63;;;10.40;83.30
29379;BME280;16362;47.202;15.258;2023-02-22T14:58:19;95861.75;;;10.43;82.51
29379;BME280;16362;47.202;15.258;2023-02-22T15:00:51;95866.00;;;10.53;81.75
29379;BME280;16362;47.202;15.258;2023-02-22T15:03:29;95866.25;;;10.58;81.35
29379;BME280;16362;47.202;15.258;2023-02-22T15:06:12;95859.47;;;10.70;81.66
29379;BME280;16362;47.202;15.258;2023-02-22T15:08:41;95868.19;;;10.64;81.71
29379;BME280;16362;47.202;15.258;2023-02-22T15:13:52;95865.91;;;10.46;81.92
29379;BME280;16362;47.202;15.258;2023-02-22T15:16:20;95862.66;;;10.51;82.13
29379;BME280;16362;47.202;15.258;2023-02-22T15:18:51;95867.09;;;10.43;82.69
29379;BME280;16362;47.202;15.258;2023-02-22T15:21:22;95867.91;;;10.44;81.91
29379;BME280;16362;47.202;15.258;2023-02-22T15:23:50;95863.47;;;10.36;81.94
29379;BME280;16362;47.202;15.258;2023-02-22T15:26:38;95864.00;;;10.32;82.66
29379;BME280;16362;47.202;15.258;2023-02-22T15:29:21;95856.63;;;10.19;83.25
29379;BME280;16362;47.202;15.258;2023-02-22T15:31:51;95867.25;;;10.04;84.73
29379;BME280;16362;47.202;15.258;2023-02-22T15:34:32;95870.56;;;9.91;86.15
29379;BME280;16362;47.202;15.258;2023-02-22T15:37:18;95863.44;;;9.83;85.79